createdAt,value
2018-07-12T00:00:40.469Z,0.00
2018-07-12T00:01:40.477Z,0.00
2018-07-12T00:02:40.480Z,0.00
2018-07-12T00:03:40.523Z,0.00
2018-07-12T00:04:40.534Z,0.00
2018-07-12T00:05:40.501Z,0.00
2018-07-12T00:06:40.543Z,0.00
2018-07-12T00:07:40.535Z,0.00
2018-07-12T00:08:40.566Z,0.00
2018-07-12T00:09:40.598Z,0.00
2018-07-12T00:10:40.567Z,0.00
2018-07-12T00:11:40.589Z,0.00
2018-07-12T00:12:40.608Z,0.00
2018-07-12T00:13:40.611Z,0.00
2018-07-12T00:14:40.672Z,0.00
2018-07-12T00:15:40.635Z,0.00
2018-07-12T00:16:40.653Z,0.00
2018-07-12T00:17:40.665Z,0.00
2018-07-12T00:18:40.666Z,0.00
2018-07-12T00:19:40.714Z,0.00
2018-07-12T00:20:40.689Z,0.00
2018-07-12T00:21:40.705Z,0.00
2018-07-12T00:22:40.712Z,0.00
2018-07-12T00:23:40.739Z,0.00
2018-07-12T00:24:40.771Z,0.00
2018-07-12T00:25:40.751Z,0.00
2018-07-12T00:26:40.768Z,0.00
2018-07-12T00:27:40.850Z,0.00
2018-07-12T00:28:40.788Z,0.00
2018-07-12T00:29:40.797Z,0.00
2018-07-12T00:30:40.812Z,0.00
2018-07-12T00:31:40.822Z,0.00
2018-07-12T00:32:40.874Z,0.00
2018-07-12T00:33:40.911Z,0.00
2018-07-12T00:34:40.863Z,0.00
2018-07-12T00:35:40.863Z,0.00
2018-07-12T00:36:40.902Z,0.00
2018-07-12T00:37:40.889Z,0.00
2018-07-12T00:38:40.934Z,0.00
2018-07-12T00:39:40.929Z,0.00
2018-07-12T00:40:40.961Z,0.00
2018-07-12T00:41:40.947Z,0.00
2018-07-12T00:42:40.958Z,0.00
2018-07-12T00:43:40.960Z,0.00
2018-07-12T00:44:40.973Z,0.00
2018-07-12T00:45:41.030Z,0.00
2018-07-12T00:46:41.011Z,0.00
2018-07-12T00:47:41.022Z,0.00
2018-07-12T00:48:41.084Z,0.00
2018-07-12T00:49:41.062Z,0.00
2018-07-12T00:50:41.047Z,0.00
2018-07-12T00:51:41.071Z,0.00
2018-07-12T00:52:41.099Z,0.00
2018-07-12T00:53:41.173Z,0.00
2018-07-12T00:54:41.113Z,0.00
2018-07-12T00:55:41.100Z,0.00
2018-07-12T00:56:41.121Z,0.00
2018-07-12T00:57:41.146Z,0.00
2018-07-12T00:58:41.173Z,0.00
2018-07-12T00:59:41.167Z,0.00
2018-07-12T01:00:41.192Z,0.00
2018-07-12T01:01:41.188Z,0.00
2018-07-12T01:02:41.223Z,0.00
2018-07-12T01:03:41.202Z,0.00
2018-07-12T01:04:41.221Z,0.00
2018-07-12T01:05:41.227Z,0.00
2018-07-12T01:06:41.236Z,0.00
2018-07-12T01:07:41.279Z,0.00
2018-07-12T01:08:41.271Z,0.00
2018-07-12T01:09:41.287Z,0.00
2018-07-12T01:10:41.311Z,0.00
2018-07-12T01:11:41.326Z,0.00
2018-07-12T01:12:41.314Z,0.00
2018-07-12T01:13:41.332Z,0.00
2018-07-12T01:14:41.383Z,0.00
2018-07-12T01:15:41.378Z,0.00
2018-07-12T01:16:41.368Z,0.00
2018-07-12T01:17:41.371Z,0.00
2018-07-12T01:18:41.393Z,0.00
2018-07-12T01:19:41.423Z,0.00
2018-07-12T01:20:41.407Z,0.00
2018-07-12T01:21:41.419Z,0.00
2018-07-12T01:22:41.451Z,0.00
2018-07-12T01:23:41.442Z,0.00
2018-07-12T01:24:41.496Z,0.00
2018-07-12T01:25:41.475Z,0.00
2018-07-12T01:26:41.495Z,0.00
2018-07-12T01:27:41.497Z,0.00
2018-07-12T01:28:41.510Z,0.00
2018-07-12T01:29:41.574Z,0.00
2018-07-12T01:30:41.531Z,0.00
2018-07-12T01:31:41.589Z,0.00
2018-07-12T01:32:41.598Z,0.00
2018-07-12T01:33:41.580Z,0.00
2018-07-12T01:34:41.582Z,0.00
2018-07-12T01:35:41.597Z,0.00
2018-07-12T01:36:41.604Z,0.00
2018-07-12T01:37:41.632Z,0.00
2018-07-12T01:38:41.673Z,0.00
2018-07-12T01:39:41.644Z,0.00
2018-07-12T01:40:41.648Z,0.00
2018-07-12T01:41:41.670Z,0.00
2018-07-12T01:42:41.665Z,0.00
2018-07-12T01:43:41.706Z,0.00
2018-07-12T01:44:41.731Z,0.00
2018-07-12T01:45:41.705Z,0.00
2018-07-12T01:46:41.712Z,0.00
2018-07-12T01:47:41.735Z,0.00
2018-07-12T01:48:41.764Z,0.00
2018-07-12T01:49:41.835Z,0.00
2018-07-12T01:50:41.763Z,0.00
2018-07-12T01:51:41.783Z,0.00
2018-07-12T01:52:41.802Z,0.00
2018-07-12T01:53:41.793Z,0.00
2018-07-12T01:54:41.848Z,0.00
2018-07-12T01:55:41.840Z,0.00
2018-07-12T01:56:41.850Z,0.00
2018-07-12T01:57:41.855Z,0.00
2018-07-12T01:58:41.872Z,0.00
2018-07-12T01:59:41.890Z,0.00
2018-07-12T02:00:41.905Z,0.00
2018-07-12T02:01:41.897Z,0.00
2018-07-12T02:02:41.908Z,0.00
2018-07-12T02:03:41.951Z,0.00
2018-07-12T02:04:41.929Z,0.00
2018-07-12T02:05:41.980Z,0.00
2018-07-12T02:06:41.964Z,0.00
2018-07-12T02:07:41.987Z,0.00
2018-07-12T02:08:41.978Z,0.00
2018-07-12T02:09:42.018Z,0.00
2018-07-12T02:10:42.048Z,0.00
2018-07-12T02:11:42.019Z,0.00
2018-07-12T02:12:42.037Z,0.00
2018-07-12T02:13:42.070Z,0.00
2018-07-12T02:14:42.058Z,0.00
2018-07-12T02:15:42.092Z,0.00
2018-07-12T02:16:42.148Z,0.00
2018-07-12T02:17:42.117Z,0.00
2018-07-12T02:18:42.111Z,0.00
2018-07-12T02:19:42.168Z,0.00
2018-07-12T02:20:42.177Z,0.00
2018-07-12T02:21:42.188Z,0.00
2018-07-12T02:22:42.155Z,0.00
2018-07-12T02:23:42.153Z,0.00
2018-07-12T02:24:42.189Z,0.00
2018-07-12T02:25:42.210Z,0.00
2018-07-12T02:26:42.213Z,0.00
2018-07-12T02:27:42.281Z,0.00
2018-07-12T02:28:42.243Z,0.00
2018-07-12T02:29:42.228Z,0.00
2018-07-12T02:30:42.234Z,0.00
2018-07-12T02:31:42.258Z,0.00
2018-07-12T02:32:42.289Z,0.00
2018-07-12T02:33:42.265Z,0.00
2018-07-12T02:34:42.290Z,0.00
2018-07-12T02:35:42.315Z,0.00
2018-07-12T02:36:42.302Z,0.00
2018-07-12T02:37:42.352Z,0.00
2018-07-12T02:38:42.351Z,0.00
2018-07-12T02:39:42.372Z,0.00
2018-07-12T02:40:42.363Z,0.00
2018-07-12T02:41:42.376Z,0.00
2018-07-12T02:42:42.418Z,0.00
2018-07-12T02:43:42.388Z,0.00
2018-07-12T02:44:42.403Z,0.00
2018-07-12T02:45:42.436Z,0.00
2018-07-12T02:46:42.440Z,0.00
2018-07-12T02:47:42.436Z,0.00
2018-07-12T02:48:42.438Z,0.00
2018-07-12T02:49:42.473Z,0.00
2018-07-12T02:50:42.521Z,0.00
2018-07-12T02:51:42.500Z,0.00
2018-07-12T02:52:42.501Z,0.00
2018-07-12T02:53:42.525Z,0.00
2018-07-12T02:54:42.521Z,0.00
2018-07-12T02:55:42.559Z,0.00
2018-07-12T02:56:42.549Z,0.00
2018-07-12T02:57:42.565Z,0.00
2018-07-12T02:58:42.613Z,4.00
2018-07-12T02:59:42.598Z,4.00
2018-07-12T03:00:42.589Z,4.00
2018-07-12T03:01:42.642Z,4.00
2018-07-12T03:02:42.637Z,4.00
2018-07-12T03:03:42.694Z,4.00
2018-07-12T03:04:42.692Z,4.00
2018-07-12T03:05:42.647Z,4.00
2018-07-12T03:06:42.695Z,4.00
2018-07-12T03:07:42.674Z,4.00
2018-07-12T03:08:42.673Z,8.00
2018-07-12T03:09:42.735Z,4.00
2018-07-12T03:10:42.735Z,8.00
2018-07-12T03:11:42.714Z,8.00
2018-07-12T03:12:42.733Z,8.00
2018-07-12T03:13:42.747Z,8.00
2018-07-12T03:14:42.748Z,8.00
2018-07-12T03:15:42.800Z,8.00
2018-07-12T03:16:42.774Z,12.00
2018-07-12T03:17:42.786Z,8.00
2018-07-12T03:18:42.798Z,12.00
2018-07-12T03:19:42.798Z,12.00
2018-07-12T03:20:42.864Z,16.00
2018-07-12T03:21:42.827Z,12.00
2018-07-12T03:22:42.889Z,16.00
2018-07-12T03:23:42.861Z,16.00
2018-07-12T03:24:42.880Z,16.00
2018-07-12T03:25:42.913Z,12.00
2018-07-12T03:26:42.920Z,16.00
2018-07-12T03:27:42.954Z,16.00
2018-07-12T03:28:42.909Z,16.00
2018-07-12T03:29:42.925Z,20.00
2018-07-12T03:30:42.928Z,20.00
2018-07-12T03:31:42.944Z,16.00
2018-07-12T03:32:42.993Z,20.00
2018-07-12T03:33:42.968Z,20.00
2018-07-12T03:34:42.994Z,24.00
2018-07-12T03:35:43.043Z,24.00
2018-07-12T03:36:43.005Z,28.00
2018-07-12T03:37:43.046Z,32.00
2018-07-12T03:38:43.019Z,32.00
2018-07-12T03:39:43.040Z,36.00
2018-07-12T03:40:43.040Z,40.00
2018-07-12T03:41:43.056Z,36.00
2018-07-12T03:42:43.106Z,36.00
2018-07-12T03:43:43.096Z,36.00
2018-07-12T03:44:43.112Z,36.00
2018-07-12T03:45:43.186Z,32.00
2018-07-12T03:46:43.185Z,32.00
2018-07-12T03:47:43.165Z,28.00
2018-07-12T03:48:43.143Z,24.00
2018-07-12T03:49:43.155Z,20.00
2018-07-12T03:50:43.167Z,16.00
2018-07-12T03:51:43.217Z,12.00
2018-07-12T03:52:43.192Z,12.00
2018-07-12T03:53:43.216Z,12.00
2018-07-12T03:54:43.270Z,16.00
2018-07-12T03:55:43.249Z,16.00
2018-07-12T03:56:43.273Z,16.00
2018-07-12T03:57:43.252Z,24.00
2018-07-12T03:58:43.249Z,32.00
2018-07-12T03:59:43.312Z,40.00
2018-07-12T04:00:43.276Z,40.00
2018-07-12T04:01:43.295Z,40.00
2018-07-12T04:02:43.298Z,40.00
2018-07-12T04:03:43.412Z,40.00
2018-07-12T04:04:43.361Z,36.00
2018-07-12T04:05:43.377Z,32.00
2018-07-12T04:06:43.350Z,32.00
2018-07-12T04:07:43.381Z,32.00
2018-07-12T04:08:43.389Z,32.00
2018-07-12T04:09:43.379Z,36.00
2018-07-12T04:10:43.421Z,32.00
2018-07-12T04:11:43.420Z,36.00
2018-07-12T04:12:43.411Z,44.00
2018-07-12T04:13:43.473Z,44.00
2018-07-12T04:14:43.435Z,44.00
2018-07-12T04:15:43.466Z,44.00
2018-07-12T04:16:43.472Z,44.00
2018-07-12T04:17:43.503Z,44.00
2018-07-12T04:18:43.541Z,40.00
2018-07-12T04:19:43.497Z,40.00
2018-07-12T04:20:43.509Z,32.00
2018-07-12T04:21:43.529Z,28.00
2018-07-12T04:22:43.587Z,24.00
2018-07-12T04:23:43.550Z,24.00
2018-07-12T04:24:43.564Z,32.00
2018-07-12T04:25:43.566Z,36.00
2018-07-12T04:26:43.581Z,40.00
2018-07-12T04:27:43.622Z,40.00
2018-07-12T04:28:43.613Z,40.00
2018-07-12T04:29:43.676Z,52.00
2018-07-12T04:30:43.625Z,56.00
2018-07-12T04:31:43.644Z,52.00
2018-07-12T04:32:43.650Z,48.00
2018-07-12T04:33:43.682Z,52.00
2018-07-12T04:34:43.746Z,52.00
2018-07-12T04:35:43.688Z,64.00
2018-07-12T04:36:43.695Z,60.00
2018-07-12T04:37:43.777Z,36.00
2018-07-12T04:38:43.745Z,32.00
2018-07-12T04:39:43.782Z,40.00
2018-07-12T04:40:43.761Z,52.00
2018-07-12T04:41:43.761Z,56.00
2018-07-12T04:42:43.771Z,60.00
2018-07-12T04:43:43.776Z,64.00
2018-07-12T04:44:43.814Z,68.00
2018-07-12T04:45:43.801Z,100.00
2018-07-12T04:46:43.853Z,92.00
2018-07-12T04:47:43.826Z,104.00
2018-07-12T04:48:43.828Z,112.00
2018-07-12T04:49:43.846Z,128.00
2018-07-12T04:50:43.854Z,128.00
2018-07-12T04:51:43.924Z,100.00
2018-07-12T04:52:43.912Z,84.00
2018-07-12T04:53:43.901Z,68.00
2018-07-12T04:54:43.895Z,92.00
2018-07-12T04:55:43.907Z,96.00
2018-07-12T04:56:43.979Z,136.00
2018-07-12T04:57:43.976Z,152.00
2018-07-12T04:58:43.952Z,148.00
2018-07-12T04:59:43.962Z,168.00
2018-07-12T05:00:43.961Z,188.00
2018-07-12T05:01:43.994Z,168.00
2018-07-12T05:02:44.058Z,184.00
2018-07-12T05:03:44.006Z,188.00
2018-07-12T05:04:44.010Z,160.00
2018-07-12T05:05:44.020Z,156.00
2018-07-12T05:06:44.041Z,124.00
2018-07-12T05:07:44.093Z,120.00
2018-07-12T05:08:44.093Z,128.00
2018-07-12T05:09:44.086Z,104.00
2018-07-12T05:10:44.090Z,100.00
2018-07-12T05:11:44.098Z,120.00
2018-07-12T05:12:44.110Z,100.00
2018-07-12T05:13:44.186Z,112.00
2018-07-12T05:14:44.133Z,128.00
2018-07-12T05:15:44.148Z,128.00
2018-07-12T05:16:44.142Z,132.00
2018-07-12T05:17:44.162Z,116.00
2018-07-12T05:18:44.208Z,84.00
2018-07-12T05:19:44.209Z,80.00
2018-07-12T05:20:44.216Z,76.00
2018-07-12T05:21:44.199Z,72.00
2018-07-12T05:22:44.253Z,108.00
2018-07-12T05:23:44.225Z,96.00
2018-07-12T05:24:44.266Z,80.00
2018-07-12T05:25:44.259Z,84.00
2018-07-12T05:26:44.260Z,116.00
2018-07-12T05:27:44.312Z,116.00
2018-07-12T05:28:44.292Z,80.00
2018-07-12T05:29:44.291Z,60.00
2018-07-12T05:30:44.326Z,56.00
2018-07-12T05:31:44.339Z,60.00
2018-07-12T05:32:44.374Z,76.00
2018-07-12T05:33:44.327Z,164.00
2018-07-12T05:34:44.347Z,236.00
2018-07-12T05:35:44.400Z,260.00
2018-07-12T05:36:44.386Z,308.00
2018-07-12T05:37:44.401Z,412.00
2018-07-12T05:38:44.434Z,392.00
2018-07-12T05:39:44.994Z,456.00
2018-07-12T05:40:44.417Z,636.00
2018-07-12T05:41:44.430Z,800.00
2018-07-12T05:42:44.455Z,792.00
2018-07-12T05:43:44.494Z,740.00
2018-07-12T05:44:44.458Z,648.00
2018-07-12T05:45:44.473Z,660.00
2018-07-12T05:46:44.563Z,656.00
2018-07-12T05:47:44.488Z,592.00
2018-07-12T05:48:44.522Z,652.00
2018-07-12T05:49:44.521Z,596.00
2018-07-12T05:50:44.525Z,536.00
2018-07-12T05:51:44.600Z,592.00
2018-07-12T05:52:44.545Z,620.00
2018-07-12T05:53:44.624Z,532.00
2018-07-12T05:54:44.613Z,480.00
2018-07-12T05:55:44.580Z,508.00
2018-07-12T05:56:44.592Z,572.00
2018-07-12T05:57:44.954Z,732.00
2018-07-12T05:58:44.625Z,812.00
2018-07-12T05:59:44.760Z,840.00
2018-07-12T06:00:44.659Z,940.00
2018-07-12T06:01:44.670Z,1024.00
2018-07-12T06:02:44.676Z,976.00
2018-07-12T06:03:44.972Z,1060.00
2018-07-12T06:04:44.805Z,1032.00
2018-07-12T06:05:44.762Z,852.00
2018-07-12T06:06:44.707Z,884.00
2018-07-12T06:07:44.769Z,828.00
2018-07-12T06:08:44.778Z,988.00
2018-07-12T06:09:44.761Z,952.00
2018-07-12T06:10:44.768Z,948.00
2018-07-12T06:11:44.803Z,836.00
2018-07-12T06:12:44.800Z,736.00
2018-07-12T06:13:44.850Z,792.00
2018-07-12T06:14:44.797Z,696.00
2018-07-12T06:15:44.815Z,572.00
2018-07-12T06:16:44.854Z,532.00
2018-07-12T06:17:44.829Z,504.00
2018-07-12T06:18:44.836Z,552.00
2018-07-12T06:19:44.851Z,492.00
2018-07-12T06:20:44.855Z,380.00
2018-07-12T06:21:44.923Z,368.00
2018-07-12T06:22:45.051Z,416.00
2018-07-12T06:23:45.094Z,532.00
2018-07-12T06:24:45.101Z,680.00
2018-07-12T06:25:44.907Z,664.00
2018-07-12T06:26:44.944Z,872.00
2018-07-12T06:27:44.950Z,1240.00
2018-07-12T06:28:44.962Z,1284.00
2018-07-12T06:29:45.030Z,1468.00
2018-07-12T06:30:44.976Z,1524.00
2018-07-12T06:31:45.032Z,1468.00
2018-07-12T06:32:44.985Z,1784.00
2018-07-12T06:33:45.024Z,1872.00
2018-07-12T06:34:45.020Z,2200.00
2018-07-12T06:35:45.036Z,2144.00
2018-07-12T06:36:45.062Z,2848.00
2018-07-12T06:37:45.064Z,3596.00
2018-07-12T06:38:45.088Z,3984.00
2018-07-12T06:39:45.073Z,3532.00
2018-07-12T06:40:45.086Z,2408.00
2018-07-12T06:41:45.100Z,2192.00
2018-07-12T06:42:45.110Z,2156.00
2018-07-12T06:43:45.174Z,2072.00
2018-07-12T06:44:45.150Z,1956.00
2018-07-12T06:45:45.158Z,1808.00
2018-07-12T06:46:45.169Z,1728.00
2018-07-12T06:47:45.176Z,1568.00
2018-07-12T06:48:45.237Z,1292.00
2018-07-12T06:49:45.189Z,1160.00
2018-07-12T06:50:45.201Z,1036.00
2018-07-12T06:51:45.212Z,908.00
2018-07-12T06:52:45.267Z,948.00
2018-07-12T06:53:45.297Z,960.00
2018-07-12T06:54:45.273Z,884.00
2018-07-12T06:55:45.268Z,916.00
2018-07-12T06:56:45.277Z,940.00
2018-07-12T06:57:45.283Z,1080.00
2018-07-12T06:58:45.349Z,1200.00
2018-07-12T06:59:45.308Z,1076.00
2018-07-12T07:00:45.436Z,1048.00
2018-07-12T07:01:45.335Z,968.00
2018-07-12T07:02:45.335Z,928.00
2018-07-12T07:03:45.398Z,936.00
2018-07-12T07:04:45.396Z,896.00
2018-07-12T07:05:45.442Z,928.00
2018-07-12T07:06:45.419Z,1076.00
2018-07-12T07:07:45.409Z,1076.00
2018-07-12T07:08:45.428Z,1068.00
2018-07-12T07:09:45.437Z,968.00
2018-07-12T07:10:45.477Z,892.00
2018-07-12T07:11:45.484Z,828.00
2018-07-12T07:12:45.458Z,836.00
2018-07-12T07:13:45.474Z,908.00
2018-07-12T07:14:45.547Z,928.00
2018-07-12T07:15:45.493Z,856.00
2018-07-12T07:16:45.534Z,772.00
2018-07-12T07:17:45.524Z,652.00
2018-07-12T07:18:45.525Z,720.00
2018-07-12T07:19:45.538Z,760.00
2018-07-12T07:20:45.560Z,788.00
2018-07-12T07:21:45.617Z,736.00
2018-07-12T07:22:45.575Z,628.00
2018-07-12T07:23:45.581Z,516.00
2018-07-12T07:24:45.589Z,480.00
2018-07-12T07:25:45.610Z,440.00
2018-07-12T07:26:45.647Z,424.00
2018-07-12T07:27:45.624Z,432.00
2018-07-12T07:28:45.635Z,384.00
2018-07-12T07:29:45.658Z,316.00
2018-07-12T07:30:45.667Z,224.00
2018-07-12T07:31:45.691Z,192.00
2018-07-12T07:32:45.736Z,212.00
2018-07-12T07:33:45.754Z,208.00
2018-07-12T07:34:45.716Z,172.00
2018-07-12T07:35:45.785Z,176.00
2018-07-12T07:36:45.722Z,232.00
2018-07-12T07:37:45.747Z,284.00
2018-07-12T07:38:45.780Z,320.00
2018-07-12T07:39:45.758Z,312.00
2018-07-12T07:40:45.791Z,292.00
2018-07-12T07:41:45.781Z,280.00
2018-07-12T07:42:45.796Z,260.00
2018-07-12T07:43:45.874Z,256.00
2018-07-12T07:44:45.834Z,276.00
2018-07-12T07:45:45.832Z,356.00
2018-07-12T07:46:45.839Z,448.00
2018-07-12T07:47:45.852Z,420.00
2018-07-12T07:48:45.922Z,376.00
2018-07-12T07:49:45.926Z,392.00
2018-07-12T07:50:45.903Z,476.00
2018-07-12T07:51:45.911Z,544.00
2018-07-12T07:52:45.909Z,484.00
2018-07-12T07:53:45.939Z,472.00
2018-07-12T07:54:46.007Z,464.00
2018-07-12T07:55:45.958Z,424.00
2018-07-12T07:56:45.970Z,456.00
2018-07-12T07:57:45.974Z,416.00
2018-07-12T07:58:45.982Z,400.00
2018-07-12T07:59:46.019Z,460.00
2018-07-12T08:00:46.067Z,520.00
2018-07-12T08:01:46.011Z,528.00
2018-07-12T08:02:46.023Z,400.00
2018-07-12T08:03:46.045Z,368.00
2018-07-12T08:04:46.054Z,324.00
2018-07-12T08:05:46.073Z,280.00
2018-07-12T08:06:46.102Z,264.00
2018-07-12T08:07:46.078Z,244.00
2018-07-12T08:08:46.097Z,224.00
2018-07-12T08:09:46.098Z,256.00
2018-07-12T08:10:46.118Z,308.00
2018-07-12T08:11:46.157Z,304.00
2018-07-12T08:12:46.186Z,228.00
2018-07-12T08:13:46.148Z,232.00
2018-07-12T08:14:46.156Z,172.00
2018-07-12T08:15:46.168Z,172.00
2018-07-12T08:16:46.262Z,172.00
2018-07-12T08:17:46.216Z,148.00
2018-07-12T08:18:46.214Z,104.00
2018-07-12T08:19:46.308Z,100.00
2018-07-12T08:20:46.237Z,88.00
2018-07-12T08:21:46.241Z,88.00
2018-07-12T08:22:46.253Z,92.00
2018-07-12T08:23:46.270Z,108.00
2018-07-12T08:24:46.305Z,112.00
2018-07-12T08:25:46.286Z,112.00
2018-07-12T08:26:46.304Z,116.00
2018-07-12T08:27:46.308Z,128.00
2018-07-12T08:28:46.360Z,124.00
2018-07-12T08:29:46.338Z,112.00
2018-07-12T08:30:46.387Z,108.00
2018-07-12T08:31:46.352Z,124.00
2018-07-12T08:32:46.379Z,132.00
2018-07-12T08:33:46.380Z,144.00
2018-07-12T08:34:46.426Z,164.00
2018-07-12T08:35:46.439Z,184.00
2018-07-12T08:36:46.408Z,156.00
2018-07-12T08:37:46.443Z,124.00
2018-07-12T08:38:46.423Z,152.00
2018-07-12T08:39:46.528Z,292.00
2018-07-12T08:40:46.479Z,1108.00
2018-07-12T08:41:46.530Z,1292.00
2018-07-12T08:42:46.540Z,980.00
2018-07-12T08:43:46.533Z,916.00
2018-07-12T08:44:46.496Z,432.00
2018-07-12T08:45:46.518Z,236.00
2018-07-12T08:46:46.551Z,316.00
2018-07-12T08:47:46.716Z,272.00
2018-07-12T08:48:46.541Z,272.00
2018-07-12T08:49:46.662Z,468.00
2018-07-12T08:50:46.552Z,716.00
2018-07-12T08:51:46.599Z,684.00
2018-07-12T08:52:46.604Z,628.00
2018-07-12T08:53:46.621Z,576.00
2018-07-12T08:54:46.670Z,476.00
2018-07-12T08:55:46.622Z,516.00
2018-07-12T08:56:46.626Z,612.00
2018-07-12T08:57:46.639Z,740.00
2018-07-12T08:58:46.706Z,676.00
2018-07-12T08:59:46.697Z,680.00
2018-07-12T09:00:46.677Z,708.00
2018-07-12T09:01:47.011Z,600.00
2018-07-12T09:02:46.728Z,580.00
2018-07-12T09:03:46.764Z,556.00
2018-07-12T09:04:46.721Z,548.00
2018-07-12T09:05:47.015Z,640.00
2018-07-12T09:06:46.738Z,724.00
2018-07-12T09:07:46.805Z,764.00
2018-07-12T09:08:46.759Z,720.00
2018-07-12T09:09:46.793Z,672.00
2018-07-12T09:10:46.821Z,672.00
2018-07-12T09:11:46.871Z,736.00
2018-07-12T09:12:46.845Z,760.00
2018-07-12T09:13:46.907Z,844.00
2018-07-12T09:14:46.834Z,828.00
2018-07-12T09:15:46.942Z,796.00
2018-07-12T09:16:46.865Z,968.00
2018-07-12T09:17:47.020Z,1128.00
2018-07-12T09:18:46.881Z,1244.00
2018-07-12T09:19:46.911Z,1284.00
2018-07-12T09:20:46.889Z,1184.00
2018-07-12T09:21:46.949Z,1336.00
2018-07-12T09:22:46.910Z,1352.00
2018-07-12T09:23:47.016Z,1368.00
2018-07-12T09:24:46.938Z,1316.00
2018-07-12T09:25:46.946Z,1376.00
2018-07-12T09:26:46.975Z,1480.00
2018-07-12T09:27:46.982Z,1624.00
2018-07-12T09:28:47.018Z,1732.00
2018-07-12T09:29:47.007Z,1764.00
2018-07-12T09:30:47.041Z,1832.00
2018-07-12T09:31:47.028Z,1876.00
2018-07-12T09:32:47.026Z,1768.00
2018-07-12T09:33:47.073Z,1752.00
2018-07-12T09:34:47.076Z,1668.00
2018-07-12T09:35:47.166Z,1608.00
2018-07-12T09:36:47.067Z,1516.00
2018-07-12T09:37:47.099Z,1464.00
2018-07-12T09:38:47.122Z,1424.00
2018-07-12T09:39:47.154Z,1368.00
2018-07-12T09:40:47.128Z,1304.00
2018-07-12T09:41:47.139Z,1264.00
2018-07-12T09:42:47.135Z,1208.00
2018-07-12T09:43:47.166Z,1212.00
2018-07-12T09:44:47.215Z,1304.00
2018-07-12T09:45:47.176Z,1380.00
2018-07-12T09:46:47.214Z,1308.00
2018-07-12T09:47:47.195Z,1264.00
2018-07-12T09:48:47.229Z,1284.00
2018-07-12T09:49:47.271Z,1268.00
2018-07-12T09:50:47.256Z,1308.00
2018-07-12T09:51:47.230Z,1420.00
2018-07-12T09:52:47.267Z,1524.00
2018-07-12T09:53:47.271Z,1472.00
2018-07-12T09:54:47.456Z,1508.00
2018-07-12T09:55:47.396Z,1576.00
2018-07-12T09:56:47.987Z,2012.00
2018-07-12T09:57:47.298Z,2124.00
2018-07-12T09:58:47.321Z,2368.00
2018-07-12T09:59:47.351Z,2660.00
2018-07-12T10:00:47.367Z,2732.00
2018-07-12T10:01:47.470Z,2788.00
2018-07-12T10:02:47.357Z,2992.00
2018-07-12T10:03:47.387Z,3132.00
2018-07-12T10:04:47.377Z,3092.00
2018-07-12T10:05:47.461Z,2992.00
2018-07-12T10:06:47.441Z,2780.00
2018-07-12T10:07:47.416Z,2628.00
2018-07-12T10:08:48.575Z,2488.00
2018-07-12T10:09:47.436Z,2312.00
2018-07-12T10:10:47.469Z,2164.00
2018-07-12T10:11:47.636Z,1988.00
2018-07-12T10:12:47.494Z,1932.00
2018-07-12T10:13:47.713Z,1860.00
2018-07-12T10:14:47.532Z,1840.00
2018-07-12T10:15:47.504Z,1864.00
2018-07-12T10:16:47.542Z,1896.00
2018-07-12T10:17:47.573Z,2000.00
2018-07-12T10:18:47.571Z,2028.00
2018-07-12T10:19:47.544Z,2128.00
2018-07-12T10:20:47.566Z,2184.00
2018-07-12T10:21:47.599Z,2296.00
2018-07-12T10:22:47.586Z,2560.00
2018-07-12T10:23:47.589Z,2736.00
2018-07-12T10:24:47.620Z,2976.00
2018-07-12T10:25:47.719Z,3248.00
2018-07-12T10:26:47.627Z,3532.00
2018-07-12T10:27:47.648Z,3664.00
2018-07-12T10:28:47.650Z,3804.00
2018-07-12T10:29:47.697Z,3928.00
2018-07-12T10:30:47.674Z,3872.00
2018-07-12T10:31:47.715Z,3892.00
2018-07-12T10:32:47.682Z,3920.00
2018-07-12T10:33:47.706Z,3800.00
2018-07-12T10:34:47.724Z,3932.00
2018-07-12T10:35:47.790Z,3816.00
2018-07-12T10:36:47.793Z,3992.00
2018-07-12T10:37:47.787Z,4000.00
2018-07-12T10:38:47.772Z,4148.00
2018-07-12T10:39:47.779Z,4168.00
2018-07-12T10:40:47.817Z,4220.00
2018-07-12T10:41:47.782Z,4276.00
2018-07-12T10:42:47.836Z,4404.00
2018-07-12T10:43:47.813Z,4476.00
2018-07-12T10:44:47.837Z,4536.00
2018-07-12T10:45:47.836Z,4668.00
2018-07-12T10:46:47.865Z,4556.00
2018-07-12T10:47:47.875Z,4524.00
2018-07-12T10:48:47.899Z,4684.00
2018-07-12T10:49:47.887Z,4596.00
2018-07-12T10:50:47.910Z,4508.00
2018-07-12T10:51:47.966Z,4428.00
2018-07-12T10:52:47.912Z,4604.00
2018-07-12T10:53:47.979Z,4432.00
2018-07-12T10:54:47.945Z,4324.00
2018-07-12T10:55:47.946Z,4432.00
2018-07-12T10:56:47.964Z,4452.00
2018-07-12T10:57:47.992Z,4376.00
2018-07-12T10:58:48.068Z,4184.00
2018-07-12T10:59:48.004Z,4260.00
2018-07-12T11:00:48.060Z,4056.00
2018-07-12T11:01:48.040Z,3876.00
2018-07-12T11:02:48.025Z,3744.00
2018-07-12T11:03:48.116Z,3768.00
2018-07-12T11:04:48.070Z,3980.00
2018-07-12T11:05:48.150Z,3712.00
2018-07-12T11:06:48.089Z,3872.00
2018-07-12T11:07:48.109Z,4392.00
2018-07-12T11:08:48.203Z,4416.00
2018-07-12T11:09:48.122Z,4232.00
2018-07-12T11:10:48.155Z,4272.00
2018-07-12T11:11:48.184Z,4180.00
2018-07-12T11:12:48.157Z,4116.00
2018-07-12T11:13:48.220Z,3992.00
2018-07-12T11:14:48.185Z,3828.00
2018-07-12T11:15:48.226Z,3764.00
2018-07-12T11:16:48.274Z,3468.00
2018-07-12T11:17:48.218Z,3100.00
2018-07-12T11:18:48.222Z,3268.00
2018-07-12T11:19:48.296Z,3596.00
2018-07-12T11:20:48.244Z,3436.00
2018-07-12T11:21:48.290Z,3352.00
2018-07-12T11:22:48.337Z,3344.00
2018-07-12T11:23:48.275Z,3224.00
2018-07-12T11:24:48.312Z,3200.00
2018-07-12T11:25:48.311Z,3344.00
2018-07-12T11:26:48.326Z,3248.00
2018-07-12T11:27:48.368Z,3528.00
2018-07-12T11:28:48.383Z,3888.00
2018-07-12T11:29:48.357Z,4336.00
2018-07-12T11:30:48.627Z,4068.00
2018-07-12T11:31:48.365Z,4048.00
2018-07-12T11:32:48.470Z,3828.00
2018-07-12T11:33:48.422Z,4108.00
2018-07-12T11:34:48.436Z,3788.00
2018-07-12T11:35:48.435Z,3548.00
2018-07-12T11:36:48.434Z,3280.00
2018-07-12T11:37:48.468Z,2896.00
2018-07-12T11:38:48.470Z,2576.00
2018-07-12T11:39:48.522Z,2504.00
2018-07-12T11:40:48.516Z,2396.00
2018-07-12T11:41:48.558Z,2264.00
2018-07-12T11:42:48.506Z,2168.00
2018-07-12T11:43:48.539Z,2012.00
2018-07-12T11:44:48.584Z,1736.00
2018-07-12T11:45:48.595Z,1596.00
2018-07-12T11:46:48.550Z,1532.00
2018-07-12T11:47:48.617Z,1476.00
2018-07-12T11:48:48.639Z,1344.00
2018-07-12T11:49:48.598Z,1280.00
2018-07-12T11:50:48.657Z,1276.00
2018-07-12T11:51:48.615Z,1256.00
2018-07-12T11:52:48.715Z,1256.00
2018-07-12T11:53:48.655Z,1240.00
2018-07-12T11:54:48.666Z,1224.00
2018-07-12T11:55:48.759Z,1340.00
2018-07-12T11:56:48.682Z,1384.00
2018-07-12T11:57:48.679Z,1336.00
2018-07-12T11:58:48.758Z,1320.00
2018-07-12T11:59:48.721Z,1264.00
2018-07-12T12:00:48.716Z,1444.00
2018-07-12T12:01:48.845Z,1452.00
2018-07-12T12:02:48.765Z,1616.00
2018-07-12T12:03:48.805Z,1612.00
2018-07-12T12:04:48.798Z,1584.00
2018-07-12T12:05:48.783Z,1604.00
2018-07-12T12:06:48.886Z,1608.00
2018-07-12T12:07:48.811Z,1552.00
2018-07-12T12:08:48.840Z,1548.00
2018-07-12T12:09:49.020Z,1552.00
2018-07-12T12:10:48.863Z,1760.00
2018-07-12T12:11:48.865Z,1864.00
2018-07-12T12:12:48.927Z,1940.00
2018-07-12T12:13:48.889Z,1940.00
2018-07-12T12:14:48.895Z,2000.00
2018-07-12T12:15:48.893Z,2008.00
2018-07-12T12:16:49.267Z,2048.00
2018-07-12T12:17:48.977Z,1936.00
2018-07-12T12:18:49.010Z,1840.00
2018-07-12T12:19:48.946Z,1720.00
2018-07-12T12:20:48.962Z,1636.00
2018-07-12T12:21:48.997Z,1728.00
2018-07-12T12:22:49.000Z,1788.00
2018-07-12T12:23:49.021Z,1708.00
2018-07-12T12:24:49.068Z,1776.00
2018-07-12T12:25:49.061Z,2056.00
2018-07-12T12:26:49.263Z,2284.00
2018-07-12T12:27:49.087Z,2168.00
2018-07-12T12:28:49.076Z,2004.00
2018-07-12T12:29:49.112Z,1780.00
2018-07-12T12:30:49.129Z,1572.00
2018-07-12T12:31:49.208Z,1524.00
2018-07-12T12:32:49.111Z,1356.00
2018-07-12T12:33:49.112Z,1516.00
2018-07-12T12:34:49.110Z,1552.00
2018-07-12T12:35:49.194Z,1580.00
2018-07-12T12:36:49.180Z,1708.00